SWF weather

New York Stewart International Airport
Newburgh, New York, United States

Public forecast

Using degrees Fahrenheit for public forecast. Weather courtesy of forecast.io.

Current aviation weather report (METAR) for New York Stewart International Airport

Retrieved 2020/05/26 04:45 UTC (1 hour ago):

KSWF 260445Z 00000KT 10SM SKC 16/15 A3020

Aviation forecast (TAF) for New York Stewart International Airport

Retrieved 2020-05-26 00:42 UTC (5 hours ago):

TAF KSWF 252341Z 2600/2706 VRB04KT P6SM FEW035 SCT050 FM260400 00000KT 5SM BR OVC015 FM260800 00000KT 2SM BR OVC008 FM261300 VRB03KT P6SM SCT012 BKN020 FM261500 20005KT P6SM SCT025 FM262000 17005KT P6SM FEW250 AMD NOT SKED